Millville, Minnesota
Current Conditions -  °F | °C
As of 12:34 AM on Monday 26 Jan 2015 (Local Time) from K9MN Reporting Station
Overcast Overcast  
Wind Chill: 18°   Ceiling: 1700
Heat Index: 24°   Visibility: 10mi
Dew Point: 19°   Wind: 5mph
Humidity: 79%   Direction: 190°S
Pressure: 29.97"   Gusts: NA
Location:  44.24°N, 92.3°W
Report Text: K9MN 260634Z AUTO 19004KT 10SM OVC017 M04/M07 A2997 RMK AO1 T10441075
Loading
Personal Weather Stations






























Interactive Weather Map New forecast layout! Learn more

10-Day Weather Forecast

Advertisements
Track Severe Weather on mobile